sensor_id;sensor_type;location;lat;lon;timestamp;P1;durP1;ratioP1;P2;durP2;ratioP2
80584;SDS011;70137;56.482;9.154;2023-07-24T00:00:12;3.25;;;1.33;;
80584;SDS011;70137;56.482;9.154;2023-07-24T00:02:38;2.75;;;1.27;;
80584;SDS011;70137;56.482;9.154;2023-07-24T00:05:04;5.60;;;1.40;;
80584;SDS011;70137;56.482;9.154;2023-07-24T00:07:29;3.42;;;1.50;;
80584;SDS011;70137;56.482;9.154;2023-07-24T00:09:55;3.65;;;1.35;;
80584;SDS011;70137;56.482;9.154;2023-07-24T00:12:21;3.50;;;1.30;;
80584;SDS011;70137;56.482;9.154;2023-07-24T00:14:47;2.17;;;1.20;;
80584;SDS011;70137;56.482;9.154;2023-07-24T00:17:13;9.35;;;1.95;;
80584;SDS011;70137;56.482;9.154;2023-07-24T00:19:38;13.30;;;1.58;;
80584;SDS011;70137;56.482;9.154;2023-07-24T00:22:03;2.03;;;1.17;;
80584;SDS011;70137;56.482;9.154;2023-07-24T00:24:29;6.10;;;1.75;;
80584;SDS011;70137;56.482;9.154;2023-07-24T00:26:56;8.00;;;3.03;;
80584;SDS011;70137;56.482;9.154;2023-07-24T00:29:21;6.03;;;2.72;;
80584;SDS011;70137;56.482;9.154;2023-07-24T00:31:46;7.38;;;3.08;;
80584;SDS011;70137;56.482;9.154;2023-07-24T00:34:12;12.10;;;4.25;;
80584;SDS011;70137;56.482;9.154;2023-07-24T00:36:37;13.25;;;5.05;;
80584;SDS011;70137;56.482;9.154;2023-07-24T00:39:03;14.32;;;4.78;;
80584;SDS011;70137;56.482;9.154;2023-07-24T00:41:28;12.38;;;4.30;;
80584;SDS011;70137;56.482;9.154;2023-07-24T00:43:54;15.05;;;5.05;;
80584;SDS011;70137;56.482;9.154;2023-07-24T00:46:19;14.68;;;4.47;;
80584;SDS011;70137;56.482;9.154;2023-07-24T00:48:44;13.20;;;4.07;;
80584;SDS011;70137;56.482;9.154;2023-07-24T00:51:10;10.70;;;3.95;;
80584;SDS011;70137;56.482;9.154;2023-07-24T00:53:35;15.48;;;4.63;;
80584;SDS011;70137;56.482;9.154;2023-07-24T00:56:01;15.68;;;4.65;;
80584;SDS011;70137;56.482;9.154;2023-07-24T00:58:26;14.15;;;3.85;;
80584;SDS011;70137;56.482;9.154;2023-07-24T01:00:53;14.63;;;4.20;;
80584;SDS011;70137;56.482;9.154;2023-07-24T01:03:18;15.30;;;4.30;;
80584;SDS011;70137;56.482;9.154;2023-07-24T01:05:44;15.05;;;4.05;;
80584;SDS011;70137;56.482;9.154;2023-07-24T01:08:09;10.30;;;3.80;;
80584;SDS011;70137;56.482;9.154;2023-07-24T01:10:34;15.05;;;4.05;;
80584;SDS011;70137;56.482;9.154;2023-07-24T01:13:08;12.27;;;3.80;;
80584;SDS011;70137;56.482;9.154;2023-07-24T01:15:42;11.98;;;3.78;;
80584;SDS011;70137;56.482;9.154;2023-07-24T01:18:35;14.37;;;3.60;;
80584;SDS011;70137;56.482;9.154;2023-07-24T01:21:03;9.70;;;3.33;;
80584;SDS011;70137;56.482;9.154;2023-07-24T01:26:39;15.23;;;3.10;;
80584;SDS011;70137;56.482;9.154;2023-07-24T01:29:05;13.15;;;3.40;;
80584;SDS011;70137;56.482;9.154;2023-07-24T01:31:30;10.70;;;3.03;;
80584;SDS011;70137;56.482;9.154;2023-07-24T01:33:55;12.15;;;2.97;;
80584;SDS011;70137;56.482;9.154;2023-07-24T01:36:21;11.30;;;2.88;;
80584;SDS011;70137;56.482;9.154;2023-07-24T01:38:47;12.60;;;2.78;;
80584;SDS011;70137;56.482;9.154;2023-07-24T01:41:13;10.00;;;2.72;;
80584;SDS011;70137;56.482;9.154;2023-07-24T01:43:39;13.20;;;3.35;;
80584;SDS011;70137;56.482;9.154;2023-07-24T01:46:04;12.13;;;2.95;;
80584;SDS011;70137;56.482;9.154;2023-07-24T01:48:29;8.13;;;2.20;;
80584;SDS011;70137;56.482;9.154;2023-07-24T01:50:54;14.90;;;3.10;;
80584;SDS011;70137;56.482;9.154;2023-07-24T01:53:20;40.13;;;3.63;;
80584;SDS011;70137;56.482;9.154;2023-07-24T01:55:45;14.93;;;3.08;;
80584;SDS011;70137;56.482;9.154;2023-07-24T01:58:10;11.98;;;2.38;;
80584;SDS011;70137;56.482;9.154;2023-07-24T02:00:36;11.00;;;2.90;;
80584;SDS011;70137;56.482;9.154;2023-07-24T02:03:01;7.05;;;2.25;;
80584;SDS011;70137;56.482;9.154;2023-07-24T02:05:26;9.98;;;2.30;;
80584;SDS011;70137;56.482;9.154;2023-07-24T02:07:52;23.73;;;2.70;;
80584;SDS011;70137;56.482;9.154;2023-07-24T02:10:17;7.63;;;2.22;;
80584;SDS011;70137;56.482;9.154;2023-07-24T02:12:42;4.75;;;1.77;;
80584;SDS011;70137;56.482;9.154;2023-07-24T02:15:08;8.05;;;2.30;;
80584;SDS011;70137;56.482;9.154;2023-07-24T02:17:33;14.98;;;2.42;;
80584;SDS011;70137;56.482;9.154;2023-07-24T02:19:59;20.42;;;3.03;;
80584;SDS011;70137;56.482;9.154;2023-07-24T02:22:24;16.58;;;2.60;;
80584;SDS011;70137;56.482;9.154;2023-07-24T02:24:49;17.42;;;2.70;;
80584;SDS011;70137;56.482;9.154;2023-07-24T02:27:24;20.73;;;2.42;;
80584;SDS011;70137;56.482;9.154;2023-07-24T02:29:51;8.90;;;1.67;;
80584;SDS011;70137;56.482;9.154;2023-07-24T02:32:16;4.85;;;1.63;;
80584;SDS011;70137;56.482;9.154;2023-07-24T02:34:42;4.38;;;1.58;;
80584;SDS011;70137;56.482;9.154;2023-07-24T02:37:07;3.67;;;1.75;;
80584;SDS011;70137;56.482;9.154;2023-07-24T02:39:32;7.97;;;1.60;;
80584;SDS011;70137;56.482;9.154;2023-07-24T02:41:57;8.38;;;1.85;;
80584;SDS011;70137;56.482;9.154;2023-07-24T02:44:23;8.35;;;1.58;;
80584;SDS011;70137;56.482;9.154;2023-07-24T02:46:48;7.55;;;1.83;;
80584;SDS011;70137;56.482;9.154;2023-07-24T02:49:13;7.55;;;1.95;;
80584;SDS011;70137;56.482;9.154;2023-07-24T02:51:39;5.75;;;1.95;;
80584;SDS011;70137;56.482;9.154;2023-07-24T02:54:04;5.93;;;1.70;;
80584;SDS011;70137;56.482;9.154;2023-07-24T02:56:31;6.00;;;1.35;;
80584;SDS011;70137;56.482;9.154;2023-07-24T02:58:56;9.48;;;2.10;;
80584;SDS011;70137;56.482;9.154;2023-07-24T03:01:21;13.73;;;2.30;;
80584;SDS011;70137;56.482;9.154;2023-07-24T03:07:09;8.15;;;1.60;;
80584;SDS011;70137;56.482;9.154;2023-07-24T03:09:34;10.18;;;1.70;;
80584;SDS011;70137;56.482;9.154;2023-07-24T03:11:59;7.20;;;1.80;;
80584;SDS011;70137;56.482;9.154;2023-07-24T03:14:24;7.13;;;2.50;;
80584;SDS011;70137;56.482;9.154;2023-07-24T03:16:51;10.60;;;1.95;;
80584;SDS011;70137;56.482;9.154;2023-07-24T03:19:16;5.03;;;1.83;;
80584;SDS011;70137;56.482;9.154;2023-07-24T03:21:42;5.93;;;1.63;;
80584;SDS011;70137;56.482;9.154;2023-07-24T03:24:08;10.02;;;2.03;;
80584;SDS011;70137;56.482;9.154;2023-07-24T03:26:33;7.28;;;1.50;;
80584;SDS011;70137;56.482;9.154;2023-07-24T03:29:00;6.40;;;1.77;;
80584;SDS011;70137;56.482;9.154;2023-07-24T03:31:25;7.82;;;1.70;;
80584;SDS011;70137;56.482;9.154;2023-07-24T03:33:50;8.35;;;1.75;;
80584;SDS011;70137;56.482;9.154;2023-07-24T03:36:16;12.25;;;1.90;;
80584;SDS011;70137;56.482;9.154;2023-07-24T03:38:41;7.07;;;1.77;;
80584;SDS011;70137;56.482;9.154;2023-07-24T03:41:06;7.55;;;1.90;;
80584;SDS011;70137;56.482;9.154;2023-07-24T03:43:31;5.80;;;1.20;;
80584;SDS011;70137;56.482;9.154;2023-07-24T03:45:57;4.70;;;1.70;;
80584;SDS011;70137;56.482;9.154;2023-07-24T03:48:22;5.95;;;2.30;;
80584;SDS011;70137;56.482;9.154;2023-07-24T03:50:49;4.47;;;1.60;;
80584;SDS011;70137;56.482;9.154;2023-07-24T03:53:15;6.45;;;1.75;;
80584;SDS011;70137;56.482;9.154;2023-07-24T03:55:40;9.50;;;1.83;;
80584;SDS011;70137;56.482;9.154;2023-07-24T03:58:06;5.80;;;2.05;;
80584;SDS011;70137;56.482;9.154;2023-07-24T04:00:31;6.97;;;2.13;;
80584;SDS011;70137;56.482;9.154;2023-07-24T04:02:56;9.02;;;1.70;;
80584;SDS011;70137;56.482;9.154;2023-07-24T04:05:22;6.75;;;1.80;;
80584;SDS011;70137;56.482;9.154;2023-07-24T04:07:47;8.02;;;2.17;;
80584;SDS011;70137;56.482;9.154;2023-07-24T04:10:12;5.22;;;2.10;;
80584;SDS011;70137;56.482;9.154;2023-07-24T04:12:37;6.57;;;1.90;;
80584;SDS011;70137;56.482;9.154;2023-07-24T04:15:03;13.50;;;2.50;;
80584;SDS011;70137;56.482;9.154;2023-07-24T04:17:28;8.20;;;1.92;;
80584;SDS011;70137;56.482;9.154;2023-07-24T04:19:54;9.32;;;2.63;;
80584;SDS011;70137;56.482;9.154;2023-07-24T04:22:20;7.78;;;2.30;;
80584;SDS011;70137;56.482;9.154;2023-07-24T04:24:45;9.02;;;2.22;;
80584;SDS011;70137;56.482;9.154;2023-07-24T04:27:10;9.15;;;2.67;;
80584;SDS011;70137;56.482;9.154;2023-07-24T04:29:35;10.38;;;2.95;;
80584;SDS011;70137;56.482;9.154;2023-07-24T04:32:01;10.20;;;2.58;;
80584;SDS011;70137;56.482;9.154;2023-07-24T04:34:26;11.68;;;2.63;;
80584;SDS011;70137;56.482;9.154;2023-07-24T04:36:57;9.43;;;2.55;;
80584;SDS011;70137;56.482;9.154;2023-07-24T04:39:23;13.63;;;2.88;;
80584;SDS011;70137;56.482;9.154;2023-07-24T04:41:48;7.10;;;2.25;;
80584;SDS011;70137;56.482;9.154;2023-07-24T04:44:13;7.20;;;2.50;;
80584;SDS011;70137;56.482;9.154;2023-07-24T04:46:38;5.72;;;2.00;;
80584;SDS011;70137;56.482;9.154;2023-07-24T04:49:04;3.78;;;2.03;;
80584;SDS011;70137;56.482;9.154;2023-07-24T04:51:29;3.30;;;1.90;;
80584;SDS011;70137;56.482;9.154;2023-07-24T04:53:54;2.05;;;1.85;;
80584;SDS011;70137;56.482;9.154;2023-07-24T04:56:19;5.85;;;1.90;;
80584;SDS011;70137;56.482;9.154;2023-07-24T04:58:45;3.55;;;2.30;;
80584;SDS011;70137;56.482;9.154;2023-07-24T05:01:16;2.60;;;2.30;;
80584;SDS011;70137;56.482;9.154;2023-07-24T05:03:41;3.33;;;1.80;;
80584;SDS011;70137;56.482;9.154;2023-07-24T05:12:50;4.22;;;1.30;;
80584;SDS011;70137;56.482;9.154;2023-07-24T05:15:15;3.22;;;1.50;;
80584;SDS011;70137;56.482;9.154;2023-07-24T05:17:42;1.10;;;0.90;;
80584;SDS011;70137;56.482;9.154;2023-07-24T05:20:10;6.20;;;1.30;;
80584;SDS011;70137;56.482;9.154;2023-07-24T05:22:36;1.40;;;1.02;;
80584;SDS011;70137;56.482;9.154;2023-07-24T05:25:01;4.80;;;1.00;;
80584;SDS011;70137;56.482;9.154;2023-07-24T05:27:26;2.15;;;0.77;;
80584;SDS011;70137;56.482;9.154;2023-07-24T05:29:52;4.93;;;0.93;;
80584;SDS011;70137;56.482;9.154;2023-07-24T05:32:17;1.23;;;0.80;;
80584;SDS011;70137;56.482;9.154;2023-07-24T05:34:42;1.83;;;0.60;;
80584;SDS011;70137;56.482;9.154;2023-07-24T05:37:08;2.17;;;0.90;;
80584;SDS011;70137;56.482;9.154;2023-07-24T05:39:33;3.33;;;0.70;;
80584;SDS011;70137;56.482;9.154;2023-07-24T05:41:58;4.70;;;1.10;;
80584;SDS011;70137;56.482;9.154;2023-07-24T05:44:23;3.08;;;0.80;;
80584;SDS011;70137;56.482;9.154;2023-07-24T05:46:49;2.47;;;0.50;;
80584;SDS011;70137;56.482;9.154;2023-07-24T05:49:14;0.60;;;0.38;;
80584;SDS011;70137;56.482;9.154;2023-07-24T05:51:39;1.75;;;0.50;;
80584;SDS011;70137;56.482;9.154;2023-07-24T05:54:05;2.10;;;0.70;;
80584;SDS011;70137;56.482;9.154;2023-07-24T05:56:30;1.42;;;0.60;;
80584;SDS011;70137;56.482;9.154;2023-07-24T05:58:55;1.25;;;0.60;;
80584;SDS011;70137;56.482;9.154;2023-07-24T06:01:20;2.50;;;0.40;;
80584;SDS011;70137;56.482;9.154;2023-07-24T06:03:46;5.28;;;0.70;;
80584;SDS011;70137;56.482;9.154;2023-07-24T06:06:11;5.18;;;0.40;;
80584;SDS011;70137;56.482;9.154;2023-07-24T06:08:36;3.63;;;0.60;;
80584;SDS011;70137;56.482;9.154;2023-07-24T06:11:02;1.80;;;0.40;;
80584;SDS011;70137;56.482;9.154;2023-07-24T06:13:27;4.22;;;0.70;;
80584;SDS011;70137;56.482;9.154;2023-07-24T06:15:52;1.83;;;0.52;;
80584;SDS011;70137;56.482;9.154;2023-07-24T06:18:17;2.83;;;1.00;;
80584;SDS011;70137;56.482;9.154;2023-07-24T06:20:43;2.13;;;0.57;;
80584;SDS011;70137;56.482;9.154;2023-07-24T06:23:08;1.33;;;0.68;;
80584;SDS011;70137;56.482;9.154;2023-07-24T06:25:34;3.40;;;1.10;;
80584;SDS011;70137;56.482;9.154;2023-07-24T06:28:00;3.78;;;0.70;;
80584;SDS011;70137;56.482;9.154;2023-07-24T06:30:25;3.25;;;1.20;;
80584;SDS011;70137;56.482;9.154;2023-07-24T06:32:50;2.70;;;0.77;;
80584;SDS011;70137;56.482;9.154;2023-07-24T06:35:16;3.72;;;0.80;;
80584;SDS011;70137;56.482;9.154;2023-07-24T06:37:41;3.00;;;0.50;;
80584;SDS011;70137;56.482;9.154;2023-07-24T06:40:07;2.17;;;1.00;;
80584;SDS011;70137;56.482;9.154;2023-07-24T06:42:33;5.55;;;0.60;;
80584;SDS011;70137;56.482;9.154;2023-07-24T06:44:58;3.70;;;0.57;;
80584;SDS011;70137;56.482;9.154;2023-07-24T06:47:24;1.45;;;0.45;;
80584;SDS011;70137;56.482;9.154;2023-07-24T06:49:49;3.72;;;0.65;;
80584;SDS011;70137;56.482;9.154;2023-07-24T06:52:15;2.22;;;0.73;;
80584;SDS011;70137;56.482;9.154;2023-07-24T06:54:40;1.85;;;0.60;;
80584;SDS011;70137;56.482;9.154;2023-07-24T06:57:05;2.95;;;0.75;;
80584;SDS011;70137;56.482;9.154;2023-07-24T06:59:31;0.40;;;0.38;;
80584;SDS011;70137;56.482;9.154;2023-07-24T07:01:56;2.22;;;0.68;;
80584;SDS011;70137;56.482;9.154;2023-07-24T07:04:21;1.10;;;0.50;;
80584;SDS011;70137;56.482;9.154;2023-07-24T07:06:47;4.45;;;1.00;;
80584;SDS011;70137;56.482;9.154;2023-07-24T07:09:12;2.42;;;0.52;;
80584;SDS011;70137;56.482;9.154;2023-07-24T07:11:37;0.80;;;0.52;;
80584;SDS011;70137;56.482;9.154;2023-07-24T07:14:03;0.95;;;0.50;;
80584;SDS011;70137;56.482;9.154;2023-07-24T07:16:29;3.05;;;0.50;;
80584;SDS011;70137;56.482;9.154;2023-07-24T07:18:54;1.30;;;0.43;;
80584;SDS011;70137;56.482;9.154;2023-07-24T07:21:19;0.93;;;0.40;;
80584;SDS011;70137;56.482;9.154;2023-07-24T07:23:44;1.52;;;0.57;;
80584;SDS011;70137;56.482;9.154;2023-07-24T07:26:10;2.83;;;0.52;;
80584;SDS011;70137;56.482;9.154;2023-07-24T07:28:35;2.45;;;0.50;;
80584;SDS011;70137;56.482;9.154;2023-07-24T07:31:00;2.08;;;0.50;;
80584;SDS011;70137;56.482;9.154;2023-07-24T07:33:26;4.28;;;0.50;;
80584;SDS011;70137;56.482;9.154;2023-07-24T07:35:51;2.30;;;0.60;;
80584;SDS011;70137;56.482;9.154;2023-07-24T07:38:16;3.50;;;0.50;;
80584;SDS011;70137;56.482;9.154;2023-07-24T07:40:42;1.75;;;0.40;;
80584;SDS011;70137;56.482;9.154;2023-07-24T07:43:07;0.70;;;0.30;;
80584;SDS011;70137;56.482;9.154;2023-07-24T07:45:32;2.08;;;0.35;;
80584;SDS011;70137;56.482;9.154;2023-07-24T07:47:58;2.17;;;0.50;;
80584;SDS011;70137;56.482;9.154;2023-07-24T07:50:23;1.30;;;0.30;;
80584;SDS011;70137;56.482;9.154;2023-07-24T07:52:49;0.77;;;0.30;;
80584;SDS011;70137;56.482;9.154;2023-07-24T07:55:16;0.65;;;0.35;;
80584;SDS011;70137;56.482;9.154;2023-07-24T07:57:41;2.15;;;0.40;;
80584;SDS011;70137;56.482;9.154;2023-07-24T08:00:07;5.50;;;0.68;;
80584;SDS011;70137;56.482;9.154;2023-07-24T08:02:32;1.00;;;0.40;;
80584;SDS011;70137;56.482;9.154;2023-07-24T08:04:59;2.97;;;0.52;;
80584;SDS011;70137;56.482;9.154;2023-07-24T08:07:24;1.38;;;0.50;;
80584;SDS011;70137;56.482;9.154;2023-07-24T08:09:49;2.28;;;0.40;;
80584;SDS011;70137;56.482;9.154;2023-07-24T08:12:15;2.05;;;0.40;;
80584;SDS011;70137;56.482;9.154;2023-07-24T08:14:40;2.42;;;0.32;;
80584;SDS011;70137;56.482;9.154;2023-07-24T08:17:06;1.60;;;0.40;;
80584;SDS011;70137;56.482;9.154;2023-07-24T08:19:31;2.75;;;0.60;;
80584;SDS011;70137;56.482;9.154;2023-07-24T08:21:56;2.58;;;0.50;;
80584;SDS011;70137;56.482;9.154;2023-07-24T08:24:22;1.63;;;0.32;;
80584;SDS011;70137;56.482;9.154;2023-07-24T08:26:47;1.77;;;0.50;;
80584;SDS011;70137;56.482;9.154;2023-07-24T08:29:12;1.15;;;0.50;;
80584;SDS011;70137;56.482;9.154;2023-07-24T08:31:38;1.25;;;0.30;;
80584;SDS011;70137;56.482;9.154;2023-07-24T08:34:03;0.93;;;0.32;;
80584;SDS011;70137;56.482;9.154;2023-07-24T08:36:28;1.95;;;0.50;;
80584;SDS011;70137;56.482;9.154;2023-07-24T08:38:54;1.65;;;0.20;;
80584;SDS011;70137;56.482;9.154;2023-07-24T08:41:19;0.82;;;0.20;;
80584;SDS011;70137;56.482;9.154;2023-07-24T08:43:45;1.13;;;0.30;;
80584;SDS011;70137;56.482;9.154;2023-07-24T08:46:10;1.77;;;0.20;;
80584;SDS011;70137;56.482;9.154;2023-07-24T08:48:37;1.95;;;0.30;;
80584;SDS011;70137;56.482;9.154;2023-07-24T08:51:04;3.00;;;0.30;;
80584;SDS011;70137;56.482;9.154;2023-07-24T08:53:32;1.63;;;0.30;;
80584;SDS011;70137;56.482;9.154;2023-07-24T08:56:00;0.50;;;0.10;;
80584;SDS011;70137;56.482;9.154;2023-07-24T08:58:27;0.20;;;0.10;;
80584;SDS011;70137;56.482;9.154;2023-07-24T09:00:53;0.40;;;0.20;;
80584;SDS011;70137;56.482;9.154;2023-07-24T09:03:18;0.32;;;0.25;;
80584;SDS011;70137;56.482;9.154;2023-07-24T09:05:44;0.20;;;0.20;;
80584;SDS011;70137;56.482;9.154;2023-07-24T09:08:10;1.67;;;0.20;;
80584;SDS011;70137;56.482;9.154;2023-07-24T09:10:35;0.30;;;0.20;;
80584;SDS011;70137;56.482;9.154;2023-07-24T09:13:00;0.35;;;0.20;;
80584;SDS011;70137;56.482;9.154;2023-07-24T09:15:28;0.60;;;0.30;;
80584;SDS011;70137;56.482;9.154;2023-07-24T09:17:54;0.10;;;0.10;;
80584;SDS011;70137;56.482;9.154;2023-07-24T09:20:20;1.08;;;0.20;;
80584;SDS011;70137;56.482;9.154;2023-07-24T09:22:52;2.65;;;0.30;;
80584;SDS011;70137;56.482;9.154;2023-07-24T09:25:18;1.15;;;0.30;;
80584;SDS011;70137;56.482;9.154;2023-07-24T09:27:54;0.95;;;0.30;;
80584;SDS011;70137;56.482;9.154;2023-07-24T09:30:19;0.98;;;0.10;;
80584;SDS011;70137;56.482;9.154;2023-07-24T09:32:51;1.00;;;0.28;;
80584;SDS011;70137;56.482;9.154;2023-07-24T09:35:18;1.35;;;0.28;;
80584;SDS011;70137;56.482;9.154;2023-07-24T09:37:44;2.28;;;0.50;;
80584;SDS011;70137;56.482;9.154;2023-07-24T09:40:10;1.02;;;0.43;;
80584;SDS011;70137;56.482;9.154;2023-07-24T09:42:37;1.40;;;0.20;;
80584;SDS011;70137;56.482;9.154;2023-07-24T09:45:05;2.53;;;0.73;;
80584;SDS011;70137;56.482;9.154;2023-07-24T09:47:33;2.65;;;0.30;;
80584;SDS011;70137;56.482;9.154;2023-07-24T09:49:59;1.70;;;0.38;;
80584;SDS011;70137;56.482;9.154;2023-07-24T09:52:28;2.38;;;0.25;;
80584;SDS011;70137;56.482;9.154;2023-07-24T09:54:59;0.85;;;0.40;;
80584;SDS011;70137;56.482;9.154;2023-07-24T09:57:26;3.15;;;0.20;;
80584;SDS011;70137;56.482;9.154;2023-07-24T09:59:54;0.55;;;0.25;;
80584;SDS011;70137;56.482;9.154;2023-07-24T10:02:21;1.95;;;0.20;;
80584;SDS011;70137;56.482;9.154;2023-07-24T10:04:48;0.25;;;0.10;;
80584;SDS011;70137;56.482;9.154;2023-07-24T10:07:14;0.82;;;0.10;;
80584;SDS011;70137;56.482;9.154;2023-07-24T10:09:41;0.10;;;0.10;;
80584;SDS011;70137;56.482;9.154;2023-07-24T10:12:08;1.88;;;0.20;;
80584;SDS011;70137;56.482;9.154;2023-07-24T10:14:34;0.52;;;0.20;;
80584;SDS011;70137;56.482;9.154;2023-07-24T10:17:01;1.25;;;0.13;;
80584;SDS011;70137;56.482;9.154;2023-07-24T10:19:34;0.70;;;0.28;;
80584;SDS011;70137;56.482;9.154;2023-07-24T10:22:01;2.13;;;0.20;;
80584;SDS011;70137;56.482;9.154;2023-07-24T10:24:28;0.60;;;0.10;;
80584;SDS011;70137;56.482;9.154;2023-07-24T10:26:55;0.35;;;0.13;;
80584;SDS011;70137;56.482;9.154;2023-07-24T10:29:23;0.60;;;0.22;;
80584;SDS011;70137;56.482;9.154;2023-07-24T10:31:54;0.30;;;0.20;;
80584;SDS011;70137;56.482;9.154;2023-07-24T10:34:20;1.48;;;0.40;;
80584;SDS011;70137;56.482;9.154;2023-07-24T10:36:45;1.17;;;0.25;;
80584;SDS011;70137;56.482;9.154;2023-07-24T10:39:14;1.15;;;0.20;;
80584;SDS011;70137;56.482;9.154;2023-07-24T10:41:46;0.10;;;0.10;;
80584;SDS011;70137;56.482;9.154;2023-07-24T10:44:11;1.20;;;0.20;;
80584;SDS011;70137;56.482;9.154;2023-07-24T10:49:07;1.45;;;0.30;;
80584;SDS011;70137;56.482;9.154;2023-07-24T10:51:33;1.25;;;0.30;;
80584;SDS011;70137;56.482;9.154;2023-07-24T10:54:01;0.32;;;0.10;;
80584;SDS011;70137;56.482;9.154;2023-07-24T10:56:27;0.75;;;0.30;;
80584;SDS011;70137;56.482;9.154;2023-07-24T10:58:52;1.23;;;0.30;;
80584;SDS011;70137;56.482;9.154;2023-07-24T11:01:18;2.10;;;0.57;;
80584;SDS011;70137;56.482;9.154;2023-07-24T11:03:43;1.13;;;0.50;;
80584;SDS011;70137;56.482;9.154;2023-07-24T11:06:13;1.95;;;0.50;;
80584;SDS011;70137;56.482;9.154;2023-07-24T11:08:55;0.85;;;0.43;;
80584;SDS011;70137;56.482;9.154;2023-07-24T11:11:32;0.65;;;0.35;;
80584;SDS011;70137;56.482;9.154;2023-07-24T11:13:59;1.00;;;0.38;;
80584;SDS011;70137;56.482;9.154;2023-07-24T11:16:26;2.05;;;0.40;;
80584;SDS011;70137;56.482;9.154;2023-07-24T11:18:52;1.33;;;0.38;;
80584;SDS011;70137;56.482;9.154;2023-07-24T11:21:17;0.60;;;0.38;;
80584;SDS011;70137;56.482;9.154;2023-07-24T11:23:47;0.85;;;0.32;;
80584;SDS011;70137;56.482;9.154;2023-07-24T11:26:12;1.17;;;0.32;;
80584;SDS011;70137;56.482;9.154;2023-07-24T11:28:39;0.65;;;0.40;;
80584;SDS011;70137;56.482;9.154;2023-07-24T11:31:05;0.85;;;0.30;;
80584;SDS011;70137;56.482;9.154;2023-07-24T11:33:30;0.77;;;0.30;;
80584;SDS011;70137;56.482;9.154;2023-07-24T11:35:56;1.45;;;0.45;;
80584;SDS011;70137;56.482;9.154;2023-07-24T11:38:22;1.08;;;0.38;;
80584;SDS011;70137;56.482;9.154;2023-07-24T11:40:48;1.08;;;0.20;;
80584;SDS011;70137;56.482;9.154;2023-07-24T11:43:18;0.95;;;0.38;;
80584;SDS011;70137;56.482;9.154;2023-07-24T11:45:45;2.58;;;0.40;;
80584;SDS011;70137;56.482;9.154;2023-07-24T11:48:13;1.80;;;0.35;;
80584;SDS011;70137;56.482;9.154;2023-07-24T11:50:58;1.65;;;0.47;;
80584;SDS011;70137;56.482;9.154;2023-07-24T11:53:29;2.17;;;0.60;;
80584;SDS011;70137;56.482;9.154;2023-07-24T11:55:59;1.05;;;0.43;;
80584;SDS011;70137;56.482;9.154;2023-07-24T11:58:27;2.05;;;0.50;;
80584;SDS011;70137;56.482;9.154;2023-07-24T12:00:54;0.73;;;0.50;;
80584;SDS011;70137;56.482;9.154;2023-07-24T12:03:20;0.88;;;0.50;;
80584;SDS011;70137;56.482;9.154;2023-07-24T12:05:46;2.60;;;0.50;;
80584;SDS011;70137;56.482;9.154;2023-07-24T12:08:12;2.83;;;0.70;;
80584;SDS011;70137;56.482;9.154;2023-07-24T12:10:39;2.55;;;0.65;;
80584;SDS011;70137;56.482;9.154;2023-07-24T12:13:05;1.88;;;0.73;;
80584;SDS011;70137;56.482;9.154;2023-07-24T12:15:30;2.90;;;1.08;;
80584;SDS011;70137;56.482;9.154;2023-07-24T12:17:56;2.35;;;0.88;;
80584;SDS011;70137;56.482;9.154;2023-07-24T12:20:22;1.80;;;0.77;;
80584;SDS011;70137;56.482;9.154;2023-07-24T12:22:48;2.75;;;0.88;;
80584;SDS011;70137;56.482;9.154;2023-07-24T12:25:14;2.10;;;0.90;;
80584;SDS011;70137;56.482;9.154;2023-07-24T12:27:40;2.47;;;0.90;;
80584;SDS011;70137;56.482;9.154;2023-07-24T12:30:06;1.70;;;1.00;;
80584;SDS011;70137;56.482;9.154;2023-07-24T12:32:32;2.92;;;0.70;;
80584;SDS011;70137;56.482;9.154;2023-07-24T12:34:57;1.83;;;0.80;;
80584;SDS011;70137;56.482;9.154;2023-07-24T12:37:23;6.07;;;1.10;;
80584;SDS011;70137;56.482;9.154;2023-07-24T12:39:48;2.90;;;0.93;;
80584;SDS011;70137;56.482;9.154;2023-07-24T12:42:14;2.88;;;0.98;;
80584;SDS011;70137;56.482;9.154;2023-07-24T12:44:40;3.05;;;0.80;;
80584;SDS011;70137;56.482;9.154;2023-07-24T12:47:06;2.80;;;0.95;;
80584;SDS011;70137;56.482;9.154;2023-07-24T12:49:32;3.25;;;0.93;;
80584;SDS011;70137;56.482;9.154;2023-07-24T12:51:58;1.65;;;0.93;;
80584;SDS011;70137;56.482;9.154;2023-07-24T12:54:23;2.83;;;1.15;;
80584;SDS011;70137;56.482;9.154;2023-07-24T12:56:49;5.15;;;1.15;;
80584;SDS011;70137;56.482;9.154;2023-07-24T12:59:15;4.57;;;1.30;;
80584;SDS011;70137;56.482;9.154;2023-07-24T13:01:41;4.57;;;1.63;;
80584;SDS011;70137;56.482;9.154;2023-07-24T13:04:07;2.92;;;1.40;;
80584;SDS011;70137;56.482;9.154;2023-07-24T13:06:32;3.35;;;1.90;;
80584;SDS011;70137;56.482;9.154;2023-07-24T13:08:58;4.90;;;1.80;;
80584;SDS011;70137;56.482;9.154;2023-07-24T13:11:23;2.28;;;1.20;;
80584;SDS011;70137;56.482;9.154;2023-07-24T13:13:48;4.40;;;1.05;;
80584;SDS011;70137;56.482;9.154;2023-07-24T13:16:15;2.60;;;1.02;;
80584;SDS011;70137;56.482;9.154;2023-07-24T13:18:41;4.55;;;1.20;;
80584;SDS011;70137;56.482;9.154;2023-07-24T13:21:06;3.63;;;1.08;;
80584;SDS011;70137;56.482;9.154;2023-07-24T13:23:32;1.35;;;1.00;;
80584;SDS011;70137;56.482;9.154;2023-07-24T13:25:58;5.00;;;1.20;;
80584;SDS011;70137;56.482;9.154;2023-07-24T13:28:23;2.28;;;1.10;;
80584;SDS011;70137;56.482;9.154;2023-07-24T13:30:49;3.50;;;1.30;;
80584;SDS011;70137;56.482;9.154;2023-07-24T13:33:14;1.33;;;0.90;;
80584;SDS011;70137;56.482;9.154;2023-07-24T13:35:39;3.28;;;1.02;;
80584;SDS011;70137;56.482;9.154;2023-07-24T13:38:05;3.03;;;1.25;;
80584;SDS011;70137;56.482;9.154;2023-07-24T13:40:33;7.10;;;2.08;;
80584;SDS011;70137;56.482;9.154;2023-07-24T13:42:58;3.25;;;1.33;;
80584;SDS011;70137;56.482;9.154;2023-07-24T13:45:24;6.18;;;1.52;;
80584;SDS011;70137;56.482;9.154;2023-07-24T13:47:49;3.30;;;1.20;;
80584;SDS011;70137;56.482;9.154;2023-07-24T13:50:14;4.43;;;1.50;;
80584;SDS011;70137;56.482;9.154;2023-07-24T13:52:40;4.70;;;1.20;;
80584;SDS011;70137;56.482;9.154;2023-07-24T13:55:05;2.28;;;1.20;;
80584;SDS011;70137;56.482;9.154;2023-07-24T13:57:30;4.70;;;1.50;;
80584;SDS011;70137;56.482;9.154;2023-07-24T13:59:56;2.38;;;1.13;;
80584;SDS011;70137;56.482;9.154;2023-07-24T14:02:21;3.60;;;1.67;;
80584;SDS011;70137;56.482;9.154;2023-07-24T14:04:46;3.25;;;1.40;;
80584;SDS011;70137;56.482;9.154;2023-07-24T14:07:12;2.72;;;1.40;;
80584;SDS011;70137;56.482;9.154;2023-07-24T14:09:38;5.65;;;1.30;;
80584;SDS011;70137;56.482;9.154;2023-07-24T14:12:04;3.90;;;1.65;;
80584;SDS011;70137;56.482;9.154;2023-07-24T14:14:29;4.63;;;1.33;;
80584;SDS011;70137;56.482;9.154;2023-07-24T14:16:54;4.47;;;1.67;;
80584;SDS011;70137;56.482;9.154;2023-07-24T14:19:20;4.78;;;1.73;;
80584;SDS011;70137;56.482;9.154;2023-07-24T14:21:45;4.65;;;1.77;;
80584;SDS011;70137;56.482;9.154;2023-07-24T14:24:10;5.40;;;1.70;;
80584;SDS011;70137;56.482;9.154;2023-07-24T14:26:36;6.70;;;1.80;;
80584;SDS011;70137;56.482;9.154;2023-07-24T14:29:02;6.53;;;2.15;;
80584;SDS011;70137;56.482;9.154;2023-07-24T14:31:28;4.80;;;1.77;;
80584;SDS011;70137;56.482;9.154;2023-07-24T14:33:54;5.00;;;1.77;;
80584;SDS011;70137;56.482;9.154;2023-07-24T14:36:19;5.25;;;1.70;;
80584;SDS011;70137;56.482;9.154;2023-07-24T14:38:44;6.78;;;1.88;;
80584;SDS011;70137;56.482;9.154;2023-07-24T14:41:10;4.90;;;1.55;;
80584;SDS011;70137;56.482;9.154;2023-07-24T14:43:37;4.90;;;1.80;;
80584;SDS011;70137;56.482;9.154;2023-07-24T14:46:03;4.55;;;1.50;;
80584;SDS011;70137;56.482;9.154;2023-07-24T14:48:28;5.32;;;1.50;;
80584;SDS011;70137;56.482;9.154;2023-07-24T14:50:53;3.17;;;1.60;;
80584;SDS011;70137;56.482;9.154;2023-07-24T14:53:19;5.22;;;1.60;;